KMQB

Macomb Municipal Airport

Macomb, Illinois, USA
METAR KMQB 221515Z AUTO 35005KT 10SM OVC020 21/17 A3010 RMK AO2 T02090167
Observed Flight Rules
May-22 @ 15:15 UTC (20 minutes ago) Marginal Visual Flight Rules
Wind Visibility Clouds
350° at 5 knots 10 miles
  • Overcast at 2,000' AGL
Temperatures Readings
Current 21°C / 70°F
Dewpoint 17°C / 63°F
Humidity 78%
Altimeter 30.1" Hg
Pressure 1019 hPa
Elevation 215
METAR KMQB 221515Z AUTO 35005KT 10SM OVC020 21/17 A3010 RMK AO2 T02090167
Observed Flight Rules
May-22 @ 15:15 UTC
(20 minutes ago)
MVFR
Wind Visibility
350° at 5 knots 10 miles
Clouds
  • Overcast at 2,000' AGL
Temperature Dewpoint
21°C / 70°F 17°C / 63°F
Humidity Altimeter Pressure
78% 30.1" Hg 1019 hPa